Hohhot, China
Current Conditions -  °F | °C
As of 9:00 PM on Thursday 30 Oct 2014 (Local Time) from ZBHH Reporting Station
Haze Haze  
Wind Chill: 50°   Ceiling: 3000
Heat Index: 50°   Visibility: 1.8mi
Dew Point: 48°   Wind: 2mph
Humidity: 94%   Direction: 350°N
Pressure: 30.12"   Gusts: NA
Location:  40.82°N, 111.64°E
Report Text: ZBHH 301300Z 35001MPS 3000 BR SCT020 BKN030 10/09 Q1020 NOSIG
Loading
Personal Weather Stations






























Interactive Weather Map
Tropical Storm Tracking
New forecast layout! Learn more

10-Day Weather Forecast

Advertisements
Track Severe Weather on mobile